sensor_id;sensor_type;location;lat;lon;timestamp;P1;durP1;ratioP1;P2;durP2;ratioP2
36351;SDS011;22382;44.768;17.206;2023-03-24T00:01:14;11.23;;;5.90;;
36351;SDS011;22382;44.768;17.206;2023-03-24T00:03:42;7.60;;;5.47;;
36351;SDS011;22382;44.768;17.206;2023-03-24T00:06:14;11.23;;;6.15;;
36351;SDS011;22382;44.768;17.206;2023-03-24T00:08:44;9.82;;;6.05;;
36351;SDS011;22382;44.768;17.206;2023-03-24T00:11:13;9.82;;;6.07;;
36351;SDS011;22382;44.768;17.206;2023-03-24T00:13:43;9.80;;;6.13;;
36351;SDS011;22382;44.768;17.206;2023-03-24T00:16:13;9.00;;;5.68;;
36351;SDS011;22382;44.768;17.206;2023-03-24T00:18:42;10.45;;;5.90;;
36351;SDS011;22382;44.768;17.206;2023-03-24T00:21:09;9.32;;;5.50;;
36351;SDS011;22382;44.768;17.206;2023-03-24T00:23:38;12.15;;;5.70;;
36351;SDS011;22382;44.768;17.206;2023-03-24T00:26:09;9.93;;;5.95;;
36351;SDS011;22382;44.768;17.206;2023-03-24T00:28:44;10.90;;;6.13;;
36351;SDS011;22382;44.768;17.206;2023-03-24T00:31:14;11.05;;;6.75;;
36351;SDS011;22382;44.768;17.206;2023-03-24T00:33:43;9.55;;;6.13;;
36351;SDS011;22382;44.768;17.206;2023-03-24T00:36:17;9.27;;;6.18;;
36351;SDS011;22382;44.768;17.206;2023-03-24T00:38:46;11.18;;;5.88;;
36351;SDS011;22382;44.768;17.206;2023-03-24T00:41:15;9.35;;;5.00;;
36351;SDS011;22382;44.768;17.206;2023-03-24T00:43:46;8.43;;;5.63;;
36351;SDS011;22382;44.768;17.206;2023-03-24T00:46:14;8.35;;;5.05;;
36351;SDS011;22382;44.768;17.206;2023-03-24T00:48:58;12.00;;;5.30;;
36351;SDS011;22382;44.768;17.206;2023-03-24T00:51:35;11.48;;;5.55;;
36351;SDS011;22382;44.768;17.206;2023-03-24T00:56:33;7.50;;;4.88;;
36351;SDS011;22382;44.768;17.206;2023-03-24T00:59:01;8.27;;;4.85;;
36351;SDS011;22382;44.768;17.206;2023-03-24T01:01:30;7.97;;;4.82;;
36351;SDS011;22382;44.768;17.206;2023-03-24T01:04:02;9.07;;;5.10;;
36351;SDS011;22382;44.768;17.206;2023-03-24T01:06:32;9.30;;;5.38;;
36351;SDS011;22382;44.768;17.206;2023-03-24T01:09:02;11.95;;;5.43;;
36351;SDS011;22382;44.768;17.206;2023-03-24T01:11:33;10.88;;;5.25;;
36351;SDS011;22382;44.768;17.206;2023-03-24T01:16:31;7.20;;;4.68;;
36351;SDS011;22382;44.768;17.206;2023-03-24T01:18:58;10.85;;;4.82;;
36351;SDS011;22382;44.768;17.206;2023-03-24T01:21:26;8.20;;;5.63;;
36351;SDS011;22382;44.768;17.206;2023-03-24T01:23:53;8.25;;;5.05;;
36351;SDS011;22382;44.768;17.206;2023-03-24T01:26:20;9.35;;;5.40;;
36351;SDS011;22382;44.768;17.206;2023-03-24T01:28:48;8.45;;;5.00;;
36351;SDS011;22382;44.768;17.206;2023-03-24T01:31:15;6.93;;;4.72;;
36351;SDS011;22382;44.768;17.206;2023-03-24T01:33:42;10.00;;;5.00;;
36351;SDS011;22382;44.768;17.206;2023-03-24T01:36:09;10.35;;;5.85;;
36351;SDS011;22382;44.768;17.206;2023-03-24T01:38:37;11.52;;;6.05;;
36351;SDS011;22382;44.768;17.206;2023-03-24T01:41:04;12.23;;;5.68;;
36351;SDS011;22382;44.768;17.206;2023-03-24T01:43:33;11.35;;;6.30;;
36351;SDS011;22382;44.768;17.206;2023-03-24T01:51:33;12.90;;;7.38;;
36351;SDS011;22382;44.768;17.206;2023-03-24T01:54:11;16.60;;;9.13;;
36351;SDS011;22382;44.768;17.206;2023-03-24T01:56:46;15.10;;;8.18;;
36351;SDS011;22382;44.768;17.206;2023-03-24T01:59:24;16.92;;;9.15;;
36351;SDS011;22382;44.768;17.206;2023-03-24T02:01:54;19.42;;;8.65;;
36351;SDS011;22382;44.768;17.206;2023-03-24T02:04:32;12.23;;;6.88;;
36351;SDS011;22382;44.768;17.206;2023-03-24T02:07:08;9.13;;;5.78;;
36351;SDS011;22382;44.768;17.206;2023-03-24T02:09:43;10.10;;;6.25;;
36351;SDS011;22382;44.768;17.206;2023-03-24T02:12:11;14.50;;;7.78;;
36351;SDS011;22382;44.768;17.206;2023-03-24T02:14:39;10.35;;;6.43;;
36351;SDS011;22382;44.768;17.206;2023-03-24T02:22:54;12.55;;;7.22;;
36351;SDS011;22382;44.768;17.206;2023-03-24T02:28:47;9.07;;;6.13;;
36351;SDS011;22382;44.768;17.206;2023-03-24T02:34:40;12.13;;;7.10;;
36351;SDS011;22382;44.768;17.206;2023-03-24T02:37:29;14.25;;;7.43;;
36351;SDS011;22382;44.768;17.206;2023-03-24T02:54:02;12.20;;;7.30;;
36351;SDS011;22382;44.768;17.206;2023-03-24T02:56:59;14.48;;;7.65;;
36351;SDS011;22382;44.768;17.206;2023-03-24T03:01:58;12.05;;;7.00;;
36351;SDS011;22382;44.768;17.206;2023-03-24T03:04:32;11.18;;;7.38;;
36351;SDS011;22382;44.768;17.206;2023-03-24T03:07:06;10.00;;;5.88;;
36351;SDS011;22382;44.768;17.206;2023-03-24T03:09:40;9.15;;;5.97;;
36351;SDS011;22382;44.768;17.206;2023-03-24T03:12:11;11.35;;;6.40;;
36351;SDS011;22382;44.768;17.206;2023-03-24T03:14:44;9.57;;;5.95;;
36351;SDS011;22382;44.768;17.206;2023-03-24T03:17:18;11.05;;;7.13;;
36351;SDS011;22382;44.768;17.206;2023-03-24T03:19:54;20.63;;;12.05;;
36351;SDS011;22382;44.768;17.206;2023-03-24T03:22:25;13.75;;;8.73;;
36351;SDS011;22382;44.768;17.206;2023-03-24T03:24:58;19.52;;;10.57;;
36351;SDS011;22382;44.768;17.206;2023-03-24T03:27:28;17.95;;;11.18;;
36351;SDS011;22382;44.768;17.206;2023-03-24T03:30:12;16.85;;;9.23;;
36351;SDS011;22382;44.768;17.206;2023-03-24T03:32:46;13.73;;;8.10;;
36351;SDS011;22382;44.768;17.206;2023-03-24T03:35:24;15.48;;;7.05;;
36351;SDS011;22382;44.768;17.206;2023-03-24T03:38:06;12.27;;;7.00;;
36351;SDS011;22382;44.768;17.206;2023-03-24T03:40:49;11.48;;;6.70;;
36351;SDS011;22382;44.768;17.206;2023-03-24T03:43:25;12.18;;;6.75;;
36351;SDS011;22382;44.768;17.206;2023-03-24T03:45:54;12.18;;;7.80;;
36351;SDS011;22382;44.768;17.206;2023-03-24T03:48:21;12.20;;;7.43;;
36351;SDS011;22382;44.768;17.206;2023-03-24T03:50:54;13.55;;;7.90;;
36351;SDS011;22382;44.768;17.206;2023-03-24T03:53:44;13.95;;;7.78;;
36351;SDS011;22382;44.768;17.206;2023-03-24T03:56:12;16.48;;;7.90;;
36351;SDS011;22382;44.768;17.206;2023-03-24T03:58:46;14.02;;;7.75;;
36351;SDS011;22382;44.768;17.206;2023-03-24T04:01:18;11.57;;;7.43;;
36351;SDS011;22382;44.768;17.206;2023-03-24T04:04:09;14.30;;;7.03;;
36351;SDS011;22382;44.768;17.206;2023-03-24T04:26:26;17.05;;;10.90;;
36351;SDS011;22382;44.768;17.206;2023-03-24T04:31:58;14.73;;;8.40;;
36351;SDS011;22382;44.768;17.206;2023-03-24T04:34:29;10.52;;;6.57;;
36351;SDS011;22382;44.768;17.206;2023-03-24T04:37:05;16.40;;;8.55;;
36351;SDS011;22382;44.768;17.206;2023-03-24T04:39:39;12.68;;;7.80;;
36351;SDS011;22382;44.768;17.206;2023-03-24T04:42:22;12.70;;;6.50;;
36351;SDS011;22382;44.768;17.206;2023-03-24T04:44:54;22.63;;;8.02;;
36351;SDS011;22382;44.768;17.206;2023-03-24T04:47:23;18.02;;;8.15;;
36351;SDS011;22382;44.768;17.206;2023-03-24T04:50:03;14.32;;;7.15;;
36351;SDS011;22382;44.768;17.206;2023-03-24T04:52:34;17.83;;;7.40;;
36351;SDS011;22382;44.768;17.206;2023-03-24T04:55:02;14.57;;;7.40;;
36351;SDS011;22382;44.768;17.206;2023-03-24T04:57:57;14.35;;;7.85;;
36351;SDS011;22382;44.768;17.206;2023-03-24T05:00:24;13.85;;;7.50;;
36351;SDS011;22382;44.768;17.206;2023-03-24T05:02:53;15.63;;;8.30;;
36351;SDS011;22382;44.768;17.206;2023-03-24T05:05:20;14.88;;;7.30;;
36351;SDS011;22382;44.768;17.206;2023-03-24T05:07:47;14.90;;;7.85;;
36351;SDS011;22382;44.768;17.206;2023-03-24T05:10:15;13.80;;;7.30;;
36351;SDS011;22382;44.768;17.206;2023-03-24T05:12:42;17.33;;;8.45;;
36351;SDS011;22382;44.768;17.206;2023-03-24T05:15:09;15.65;;;8.18;;
36351;SDS011;22382;44.768;17.206;2023-03-24T05:17:37;14.13;;;8.35;;
36351;SDS011;22382;44.768;17.206;2023-03-24T05:20:04;20.10;;;10.13;;
36351;SDS011;22382;44.768;17.206;2023-03-24T05:22:37;17.70;;;8.80;;
36351;SDS011;22382;44.768;17.206;2023-03-24T05:25:04;14.82;;;7.85;;
36351;SDS011;22382;44.768;17.206;2023-03-24T05:27:32;20.13;;;8.75;;
36351;SDS011;22382;44.768;17.206;2023-03-24T05:29:59;13.70;;;7.85;;
36351;SDS011;22382;44.768;17.206;2023-03-24T05:32:26;24.17;;;8.65;;
36351;SDS011;22382;44.768;17.206;2023-03-24T05:34:54;18.88;;;10.02;;
36351;SDS011;22382;44.768;17.206;2023-03-24T05:37:21;17.80;;;9.70;;
36351;SDS011;22382;44.768;17.206;2023-03-24T05:39:48;22.38;;;10.40;;
36351;SDS011;22382;44.768;17.206;2023-03-24T05:42:16;17.65;;;8.82;;
36351;SDS011;22382;44.768;17.206;2023-03-24T05:44:43;21.88;;;12.05;;
36351;SDS011;22382;44.768;17.206;2023-03-24T05:47:11;24.35;;;13.30;;
36351;SDS011;22382;44.768;17.206;2023-03-24T05:49:41;21.95;;;13.18;;
36351;SDS011;22382;44.768;17.206;2023-03-24T05:52:09;23.88;;;13.57;;
36351;SDS011;22382;44.768;17.206;2023-03-24T05:54:38;19.92;;;12.40;;
36351;SDS011;22382;44.768;17.206;2023-03-24T05:57:05;18.83;;;11.38;;
36351;SDS011;22382;44.768;17.206;2023-03-24T05:59:36;19.63;;;10.43;;
36351;SDS011;22382;44.768;17.206;2023-03-24T06:02:03;24.02;;;10.13;;
36351;SDS011;22382;44.768;17.206;2023-03-24T06:04:31;20.40;;;9.43;;
36351;SDS011;22382;44.768;17.206;2023-03-24T06:06:59;17.08;;;9.23;;
36351;SDS011;22382;44.768;17.206;2023-03-24T06:09:26;16.63;;;8.65;;
36351;SDS011;22382;44.768;17.206;2023-03-24T06:11:58;20.13;;;9.40;;
36351;SDS011;22382;44.768;17.206;2023-03-24T06:14:25;16.77;;;8.85;;
36351;SDS011;22382;44.768;17.206;2023-03-24T06:16:52;17.27;;;7.85;;
36351;SDS011;22382;44.768;17.206;2023-03-24T06:19:20;19.70;;;8.93;;
36351;SDS011;22382;44.768;17.206;2023-03-24T06:21:47;31.73;;;14.55;;
36351;SDS011;22382;44.768;17.206;2023-03-24T06:24:16;32.10;;;15.50;;
36351;SDS011;22382;44.768;17.206;2023-03-24T06:26:45;55.10;;;26.80;;
36351;SDS011;22382;44.768;17.206;2023-03-24T06:29:15;23.30;;;11.43;;
36351;SDS011;22382;44.768;17.206;2023-03-24T06:31:44;21.00;;;9.52;;
36351;SDS011;22382;44.768;17.206;2023-03-24T06:34:11;17.17;;;8.05;;
36351;SDS011;22382;44.768;17.206;2023-03-24T06:36:39;15.32;;;7.82;;
36351;SDS011;22382;44.768;17.206;2023-03-24T06:39:06;17.35;;;8.93;;
36351;SDS011;22382;44.768;17.206;2023-03-24T06:41:33;14.38;;;8.13;;
36351;SDS011;22382;44.768;17.206;2023-03-24T06:44:00;15.15;;;8.07;;
36351;SDS011;22382;44.768;17.206;2023-03-24T06:46:27;19.58;;;9.18;;
36351;SDS011;22382;44.768;17.206;2023-03-24T06:48:54;14.63;;;7.80;;
36351;SDS011;22382;44.768;17.206;2023-03-24T06:51:22;15.93;;;9.02;;
36351;SDS011;22382;44.768;17.206;2023-03-24T06:53:49;20.52;;;9.60;;
36351;SDS011;22382;44.768;17.206;2023-03-24T06:56:16;18.30;;;10.35;;
36351;SDS011;22382;44.768;17.206;2023-03-24T06:58:45;21.08;;;11.05;;
36351;SDS011;22382;44.768;17.206;2023-03-24T07:01:13;22.60;;;11.57;;
36351;SDS011;22382;44.768;17.206;2023-03-24T07:03:40;28.25;;;11.93;;
36351;SDS011;22382;44.768;17.206;2023-03-24T07:06:08;24.83;;;12.02;;
36351;SDS011;22382;44.768;17.206;2023-03-24T07:08:35;35.95;;;12.13;;
36351;SDS011;22382;44.768;17.206;2023-03-24T07:11:04;22.02;;;9.90;;
36351;SDS011;22382;44.768;17.206;2023-03-24T07:13:34;17.05;;;8.35;;
36351;SDS011;22382;44.768;17.206;2023-03-24T07:16:01;20.77;;;8.15;;
36351;SDS011;22382;44.768;17.206;2023-03-24T07:18:29;18.80;;;8.35;;
36351;SDS011;22382;44.768;17.206;2023-03-24T07:20:56;16.58;;;6.80;;
36351;SDS011;22382;44.768;17.206;2023-03-24T07:23:23;16.88;;;7.97;;
36351;SDS011;22382;44.768;17.206;2023-03-24T07:25:52;13.10;;;7.30;;
36351;SDS011;22382;44.768;17.206;2023-03-24T07:28:20;13.63;;;7.93;;
36351;SDS011;22382;44.768;17.206;2023-03-24T07:30:47;15.55;;;7.53;;
36351;SDS011;22382;44.768;17.206;2023-03-24T07:33:14;17.88;;;8.00;;
36351;SDS011;22382;44.768;17.206;2023-03-24T07:35:41;16.55;;;7.25;;
36351;SDS011;22382;44.768;17.206;2023-03-24T07:38:09;12.88;;;7.43;;
36351;SDS011;22382;44.768;17.206;2023-03-24T07:40:36;19.35;;;6.47;;
36351;SDS011;22382;44.768;17.206;2023-03-24T07:43:04;15.35;;;6.75;;
36351;SDS011;22382;44.768;17.206;2023-03-24T07:45:34;10.35;;;4.50;;
36351;SDS011;22382;44.768;17.206;2023-03-24T07:48:01;7.80;;;4.10;;
36351;SDS011;22382;44.768;17.206;2023-03-24T07:50:29;4.47;;;2.35;;
36351;SDS011;22382;44.768;17.206;2023-03-24T07:52:57;2.80;;;1.77;;
36351;SDS011;22382;44.768;17.206;2023-03-24T07:55:25;5.72;;;2.55;;
36351;SDS011;22382;44.768;17.206;2023-03-24T07:57:53;3.33;;;1.75;;
36351;SDS011;22382;44.768;17.206;2023-03-24T08:00:20;6.75;;;1.73;;
36351;SDS011;22382;44.768;17.206;2023-03-24T08:02:50;2.47;;;1.98;;
36351;SDS011;22382;44.768;17.206;2023-03-24T08:05:19;3.78;;;1.80;;
36351;SDS011;22382;44.768;17.206;2023-03-24T08:07:48;7.88;;;2.00;;
36351;SDS011;22382;44.768;17.206;2023-03-24T08:10:22;2.60;;;1.73;;
36351;SDS011;22382;44.768;17.206;2023-03-24T08:12:52;4.82;;;1.33;;
36351;SDS011;22382;44.768;17.206;2023-03-24T08:15:20;2.72;;;1.77;;
36351;SDS011;22382;44.768;17.206;2023-03-24T08:17:48;3.53;;;1.83;;
36351;SDS011;22382;44.768;17.206;2023-03-24T08:20:15;3.95;;;1.45;;
36351;SDS011;22382;44.768;17.206;2023-03-24T08:22:45;4.93;;;1.60;;
36351;SDS011;22382;44.768;17.206;2023-03-24T08:25:21;2.38;;;1.52;;
36351;SDS011;22382;44.768;17.206;2023-03-24T08:27:50;2.60;;;1.40;;
36351;SDS011;22382;44.768;17.206;2023-03-24T08:30:19;3.05;;;1.85;;
36351;SDS011;22382;44.768;17.206;2023-03-24T08:32:51;2.22;;;1.45;;
36351;SDS011;22382;44.768;17.206;2023-03-24T08:37:50;2.72;;;1.80;;
36351;SDS011;22382;44.768;17.206;2023-03-24T08:40:19;3.10;;;1.60;;
36351;SDS011;22382;44.768;17.206;2023-03-24T08:42:49;4.63;;;1.50;;
36351;SDS011;22382;44.768;17.206;2023-03-24T08:45:20;4.80;;;1.80;;
36351;SDS011;22382;44.768;17.206;2023-03-24T08:47:49;3.33;;;1.60;;
36351;SDS011;22382;44.768;17.206;2023-03-24T08:50:21;4.55;;;1.60;;
36351;SDS011;22382;44.768;17.206;2023-03-24T08:52:51;4.90;;;1.90;;
36351;SDS011;22382;44.768;17.206;2023-03-24T08:55:20;5.18;;;1.38;;
36351;SDS011;22382;44.768;17.206;2023-03-24T08:57:48;3.40;;;1.55;;
36351;SDS011;22382;44.768;17.206;2023-03-24T09:00:17;6.10;;;2.08;;
36351;SDS011;22382;44.768;17.206;2023-03-24T09:02:47;7.57;;;2.05;;
36351;SDS011;22382;44.768;17.206;2023-03-24T09:05:17;2.45;;;1.20;;
36351;SDS011;22382;44.768;17.206;2023-03-24T09:07:54;3.08;;;1.33;;
36351;SDS011;22382;44.768;17.206;2023-03-24T09:10:22;7.60;;;1.60;;
36351;SDS011;22382;44.768;17.206;2023-03-24T09:12:49;2.05;;;1.30;;
36351;SDS011;22382;44.768;17.206;2023-03-24T09:15:16;4.07;;;1.40;;
36351;SDS011;22382;44.768;17.206;2023-03-24T09:17:44;4.45;;;1.48;;
36351;SDS011;22382;44.768;17.206;2023-03-24T09:20:12;3.20;;;1.50;;
36351;SDS011;22382;44.768;17.206;2023-03-24T09:22:41;2.28;;;1.42;;
36351;SDS011;22382;44.768;17.206;2023-03-24T09:25:11;3.45;;;1.30;;
36351;SDS011;22382;44.768;17.206;2023-03-24T09:27:40;1.67;;;1.10;;
36351;SDS011;22382;44.768;17.206;2023-03-24T09:30:09;4.82;;;1.48;;
36351;SDS011;22382;44.768;17.206;2023-03-24T09:32:37;2.95;;;1.58;;
36351;SDS011;22382;44.768;17.206;2023-03-24T09:35:04;3.72;;;1.27;;
36351;SDS011;22382;44.768;17.206;2023-03-24T09:37:34;2.33;;;1.17;;
36351;SDS011;22382;44.768;17.206;2023-03-24T09:40:02;1.92;;;1.08;;
36351;SDS011;22382;44.768;17.206;2023-03-24T09:42:37;3.92;;;1.10;;
36351;SDS011;22382;44.768;17.206;2023-03-24T09:45:10;2.75;;;1.05;;
36351;SDS011;22382;44.768;17.206;2023-03-24T09:50:42;3.15;;;1.20;;
36351;SDS011;22382;44.768;17.206;2023-03-24T09:56:11;4.90;;;1.40;;
36351;SDS011;22382;44.768;17.206;2023-03-24T09:58:44;2.25;;;1.20;;
36351;SDS011;22382;44.768;17.206;2023-03-24T10:01:24;2.05;;;1.25;;
36351;SDS011;22382;44.768;17.206;2023-03-24T10:03:53;2.85;;;1.27;;
36351;SDS011;22382;44.768;17.206;2023-03-24T10:06:35;2.20;;;1.13;;
36351;SDS011;22382;44.768;17.206;2023-03-24T10:12:03;1.92;;;1.10;;
36351;SDS011;22382;44.768;17.206;2023-03-24T10:31:38;3.17;;;1.02;;
36351;SDS011;22382;44.768;17.206;2023-03-24T10:34:09;3.33;;;1.23;;
36351;SDS011;22382;44.768;17.206;2023-03-24T10:36:38;2.63;;;1.35;;
36351;SDS011;22382;44.768;17.206;2023-03-24T10:39:08;2.85;;;1.20;;
36351;SDS011;22382;44.768;17.206;2023-03-24T10:41:49;2.25;;;1.60;;
36351;SDS011;22382;44.768;17.206;2023-03-24T10:44:19;1.67;;;1.15;;
36351;SDS011;22382;44.768;17.206;2023-03-24T10:46:51;2.55;;;1.08;;
36351;SDS011;22382;44.768;17.206;2023-03-24T10:49:22;2.22;;;0.75;;
36351;SDS011;22382;44.768;17.206;2023-03-24T10:51:50;1.23;;;0.85;;
36351;SDS011;22382;44.768;17.206;2023-03-24T10:54:23;2.05;;;1.08;;
36351;SDS011;22382;44.768;17.206;2023-03-24T11:02:50;1.50;;;0.98;;
36351;SDS011;22382;44.768;17.206;2023-03-24T11:07:41;2.42;;;1.00;;
36351;SDS011;22382;44.768;17.206;2023-03-24T11:15:20;2.25;;;1.13;;
36351;SDS011;22382;44.768;17.206;2023-03-24T11:17:58;4.40;;;1.00;;
36351;SDS011;22382;44.768;17.206;2023-03-24T11:20:45;2.95;;;0.88;;
36351;SDS011;22382;44.768;17.206;2023-03-24T11:26:17;1.10;;;0.77;;
36351;SDS011;22382;44.768;17.206;2023-03-24T11:28:51;1.80;;;0.82;;
36351;SDS011;22382;44.768;17.206;2023-03-24T11:31:31;1.08;;;0.90;;
36351;SDS011;22382;44.768;17.206;2023-03-24T11:36:37;5.18;;;0.95;;
36351;SDS011;22382;44.768;17.206;2023-03-24T11:39:16;5.35;;;0.95;;
36351;SDS011;22382;44.768;17.206;2023-03-24T11:41:58;2.10;;;0.80;;
36351;SDS011;22382;44.768;17.206;2023-03-24T11:44:52;5.40;;;0.80;;
36351;SDS011;22382;44.768;17.206;2023-03-24T11:47:22;3.67;;;0.95;;
36351;SDS011;22382;44.768;17.206;2023-03-24T11:49:52;2.60;;;0.93;;
36351;SDS011;22382;44.768;17.206;2023-03-24T11:53:00;2.30;;;0.70;;
36351;SDS011;22382;44.768;17.206;2023-03-24T11:55:43;2.25;;;0.85;;
36351;SDS011;22382;44.768;17.206;2023-03-24T11:58:31;1.67;;;0.90;;
36351;SDS011;22382;44.768;17.206;2023-03-24T12:01:09;9.77;;;1.23;;
36351;SDS011;22382;44.768;17.206;2023-03-24T12:09:17;3.30;;;1.10;;
36351;SDS011;22382;44.768;17.206;2023-03-24T12:12:10;2.20;;;1.00;;
36351;SDS011;22382;44.768;17.206;2023-03-24T12:20:25;2.33;;;0.80;;
36351;SDS011;22382;44.768;17.206;2023-03-24T12:42:39;1.73;;;1.02;;
36351;SDS011;22382;44.768;17.206;2023-03-24T12:48:35;2.53;;;1.00;;
36351;SDS011;22382;44.768;17.206;2023-03-24T12:58:56;1.00;;;0.70;;
36351;SDS011;22382;44.768;17.206;2023-03-24T13:01:49;2.65;;;1.10;;
36351;SDS011;22382;44.768;17.206;2023-03-24T13:04:24;2.63;;;1.20;;
36351;SDS011;22382;44.768;17.206;2023-03-24T13:07:00;2.42;;;0.85;;
36351;SDS011;22382;44.768;17.206;2023-03-24T13:09:47;2.50;;;0.80;;
36351;SDS011;22382;44.768;17.206;2023-03-24T13:20:26;3.38;;;1.02;;
36351;SDS011;22382;44.768;17.206;2023-03-24T13:22:58;2.70;;;1.00;;
36351;SDS011;22382;44.768;17.206;2023-03-24T13:25:44;1.35;;;0.80;;
36351;SDS011;22382;44.768;17.206;2023-03-24T13:28:20;2.30;;;0.73;;
36351;SDS011;22382;44.768;17.206;2023-03-24T13:30:53;9.48;;;1.15;;
36351;SDS011;22382;44.768;17.206;2023-03-24T13:33:28;2.05;;;1.10;;
36351;SDS011;22382;44.768;17.206;2023-03-24T13:39:11;3.20;;;1.00;;
36351;SDS011;22382;44.768;17.206;2023-03-24T13:41:47;1.33;;;1.00;;
36351;SDS011;22382;44.768;17.206;2023-03-24T13:44:23;2.35;;;0.85;;
36351;SDS011;22382;44.768;17.206;2023-03-24T13:49:58;4.45;;;1.40;;
36351;SDS011;22382;44.768;17.206;2023-03-24T13:52:37;2.80;;;1.33;;
36351;SDS011;22382;44.768;17.206;2023-03-24T13:55:20;1.48;;;1.08;;
36351;SDS011;22382;44.768;17.206;2023-03-24T13:57:58;1.73;;;0.90;;
36351;SDS011;22382;44.768;17.206;2023-03-24T14:00:30;3.28;;;1.45;;
36351;SDS011;22382;44.768;17.206;2023-03-24T14:05:32;3.50;;;1.02;;
36351;SDS011;22382;44.768;17.206;2023-03-24T14:10:46;4.97;;;1.10;;
36351;SDS011;22382;44.768;17.206;2023-03-24T14:15:51;2.13;;;1.10;;
36351;SDS011;22382;44.768;17.206;2023-03-24T14:25:52;5.70;;;0.90;;
36351;SDS011;22382;44.768;17.206;2023-03-24T14:28:24;3.08;;;1.05;;
36351;SDS011;22382;44.768;17.206;2023-03-24T14:31:02;6.13;;;1.30;;
36351;SDS011;22382;44.768;17.206;2023-03-24T14:36:32;4.85;;;1.67;;
36351;SDS011;22382;44.768;17.206;2023-03-24T14:41:55;2.85;;;1.50;;
36351;SDS011;22382;44.768;17.206;2023-03-24T14:47:10;2.60;;;1.20;;
36351;SDS011;22382;44.768;17.206;2023-03-24T14:49:49;3.60;;;1.25;;
36351;SDS011;22382;44.768;17.206;2023-03-24T14:57:23;3.45;;;1.30;;
36351;SDS011;22382;44.768;17.206;2023-03-24T14:59:57;1.88;;;1.23;;
36351;SDS011;22382;44.768;17.206;2023-03-24T15:02:42;3.72;;;1.67;;
36351;SDS011;22382;44.768;17.206;2023-03-24T15:07:40;3.92;;;1.38;;
36351;SDS011;22382;44.768;17.206;2023-03-24T15:10:15;4.70;;;1.33;;
36351;SDS011;22382;44.768;17.206;2023-03-24T15:12:43;5.20;;;1.48;;
36351;SDS011;22382;44.768;17.206;2023-03-24T15:15:19;5.40;;;1.33;;
36351;SDS011;22382;44.768;17.206;2023-03-24T15:17:49;3.65;;;1.33;;
36351;SDS011;22382;44.768;17.206;2023-03-24T15:20:27;3.20;;;1.35;;
36351;SDS011;22382;44.768;17.206;2023-03-24T15:23:06;3.05;;;1.45;;
36351;SDS011;22382;44.768;17.206;2023-03-24T15:25:33;7.15;;;2.40;;
36351;SDS011;22382;44.768;17.206;2023-03-24T15:28:01;6.38;;;4.40;;
36351;SDS011;22382;44.768;17.206;2023-03-24T15:30:43;6.00;;;3.25;;
36351;SDS011;22382;44.768;17.206;2023-03-24T15:33:11;3.58;;;2.20;;
36351;SDS011;22382;44.768;17.206;2023-03-24T15:35:39;2.45;;;1.60;;
36351;SDS011;22382;44.768;17.206;2023-03-24T15:38:16;2.10;;;1.80;;
36351;SDS011;22382;44.768;17.206;2023-03-24T15:40:51;2.75;;;1.80;;
36351;SDS011;22382;44.768;17.206;2023-03-24T15:43:22;5.43;;;1.80;;
36351;SDS011;22382;44.768;17.206;2023-03-24T15:45:52;4.82;;;1.90;;
36351;SDS011;22382;44.768;17.206;2023-03-24T15:48:34;3.70;;;1.90;;
36351;SDS011;22382;44.768;17.206;2023-03-24T15:51:07;2.83;;;1.88;;
36351;SDS011;22382;44.768;17.206;2023-03-24T15:53:41;2.88;;;1.70;;
36351;SDS011;22382;44.768;17.206;2023-03-24T15:56:18;2.75;;;1.90;;
36351;SDS011;22382;44.768;17.206;2023-03-24T15:58:52;2.10;;;1.60;;
36351;SDS011;22382;44.768;17.206;2023-03-24T16:01:22;3.15;;;1.70;;
36351;SDS011;22382;44.768;17.206;2023-03-24T16:03:52;4.90;;;1.75;;
36351;SDS011;22382;44.768;17.206;2023-03-24T16:06:31;3.80;;;1.65;;
36351;SDS011;22382;44.768;17.206;2023-03-24T16:09:06;3.15;;;1.80;;
36351;SDS011;22382;44.768;17.206;2023-03-24T16:11:38;3.50;;;1.95;;
36351;SDS011;22382;44.768;17.206;2023-03-24T16:16:57;2.75;;;1.95;;
36351;SDS011;22382;44.768;17.206;2023-03-24T16:19:27;3.20;;;1.70;;
36351;SDS011;22382;44.768;17.206;2023-03-24T16:21:55;5.28;;;2.05;;
36351;SDS011;22382;44.768;17.206;2023-03-24T16:24:22;3.30;;;1.73;;
36351;SDS011;22382;44.768;17.206;2023-03-24T16:26:49;4.63;;;1.98;;
36351;SDS011;22382;44.768;17.206;2023-03-24T16:29:17;4.03;;;2.00;;
36351;SDS011;22382;44.768;17.206;2023-03-24T16:31:47;5.97;;;1.90;;
36351;SDS011;22382;44.768;17.206;2023-03-24T16:34:16;5.32;;;1.77;;
36351;SDS011;22382;44.768;17.206;2023-03-24T16:36:44;10.40;;;3.95;;
36351;SDS011;22382;44.768;17.206;2023-03-24T16:39:13;15.45;;;5.60;;
36351;SDS011;22382;44.768;17.206;2023-03-24T16:44:12;10.27;;;3.47;;
36351;SDS011;22382;44.768;17.206;2023-03-24T16:46:40;10.88;;;3.50;;
36351;SDS011;22382;44.768;17.206;2023-03-24T16:49:11;5.72;;;2.80;;
36351;SDS011;22382;44.768;17.206;2023-03-24T16:51:43;4.95;;;2.90;;
36351;SDS011;22382;44.768;17.206;2023-03-24T16:54:11;9.80;;;4.25;;
36351;SDS011;22382;44.768;17.206;2023-03-24T16:56:39;6.68;;;2.83;;
36351;SDS011;22382;44.768;17.206;2023-03-24T16:59:06;10.20;;;3.53;;
36351;SDS011;22382;44.768;17.206;2023-03-24T17:04:05;7.97;;;3.22;;
36351;SDS011;22382;44.768;17.206;2023-03-24T17:06:36;6.18;;;2.67;;
36351;SDS011;22382;44.768;17.206;2023-03-24T17:09:06;10.00;;;3.30;;
36351;SDS011;22382;44.768;17.206;2023-03-24T17:11:35;5.35;;;2.35;;
36351;SDS011;22382;44.768;17.206;2023-03-24T17:14:27;3.67;;;2.13;;
36351;SDS011;22382;44.768;17.206;2023-03-24T17:16:56;3.10;;;2.13;;
36351;SDS011;22382;44.768;17.206;2023-03-24T17:19:23;5.72;;;2.22;;
36351;SDS011;22382;44.768;17.206;2023-03-24T17:21:55;4.38;;;2.30;;
36351;SDS011;22382;44.768;17.206;2023-03-24T17:24:24;6.75;;;2.75;;
36351;SDS011;22382;44.768;17.206;2023-03-24T17:26:51;4.45;;;2.33;;
36351;SDS011;22382;44.768;17.206;2023-03-24T17:29:18;4.25;;;2.00;;
36351;SDS011;22382;44.768;17.206;2023-03-24T17:31:46;4.65;;;1.85;;
36351;SDS011;22382;44.768;17.206;2023-03-24T17:34:13;3.30;;;1.73;;
36351;SDS011;22382;44.768;17.206;2023-03-24T17:36:47;4.28;;;2.30;;
36351;SDS011;22382;44.768;17.206;2023-03-24T17:39:16;4.60;;;2.40;;
36351;SDS011;22382;44.768;17.206;2023-03-24T17:41:45;4.97;;;2.20;;
36351;SDS011;22382;44.768;17.206;2023-03-24T17:44:12;6.18;;;2.53;;
36351;SDS011;22382;44.768;17.206;2023-03-24T17:46:40;4.03;;;2.10;;
36351;SDS011;22382;44.768;17.206;2023-03-24T17:49:07;3.33;;;1.75;;
36351;SDS011;22382;44.768;17.206;2023-03-24T17:51:34;3.08;;;1.83;;
36351;SDS011;22382;44.768;17.206;2023-03-24T17:54:01;3.40;;;2.03;;
36351;SDS011;22382;44.768;17.206;2023-03-24T17:56:29;2.42;;;1.63;;
36351;SDS011;22382;44.768;17.206;2023-03-24T17:58:56;4.40;;;2.10;;
36351;SDS011;22382;44.768;17.206;2023-03-24T18:01:28;3.10;;;1.90;;
36351;SDS011;22382;44.768;17.206;2023-03-24T18:03:56;3.70;;;2.38;;
36351;SDS011;22382;44.768;17.206;2023-03-24T18:06:23;4.45;;;2.53;;
36351;SDS011;22382;44.768;17.206;2023-03-24T18:08:52;4.38;;;1.80;;
36351;SDS011;22382;44.768;17.206;2023-03-24T18:11:20;5.80;;;1.90;;
36351;SDS011;22382;44.768;17.206;2023-03-24T18:13:47;3.05;;;1.85;;
36351;SDS011;22382;44.768;17.206;2023-03-24T18:16:15;3.00;;;1.73;;
36351;SDS011;22382;44.768;17.206;2023-03-24T18:18:47;4.82;;;1.98;;